Dryden Regional Airport
CYHD : now visible

Airfield :











YOU CAN JOIN US ON...

 
LOGIN :

Register | Disclaimer

   EN    FR    IT 

 









Legend :    VFR   Marginal VFR   IFR   Intensive IFR   Very Intensive IFR
Visi :
Ceiling :
>= 8 km
>= 3000ft
5 to 8 km
1000 to 3000 ft
1500m to 5 km
500 to 1000 ft
800 to 1500m
200 to 500 ft
< 800m
< 200 ft
Symbols :   Thunderstorms  Fog  Heavy snow  Heavy precipitations  Wind > 20 kt






- Airport Elevation : 1354 ft
- IATA code : YHD


CYHD - Dryden Regional

CURRENT METAR :
  • 240403Z AUTO 08003KT 9SM SCT010 BKN220 M11/M13 A3023 RMK SLP274

EXPIRED METARs :
  • 240340Z AUTO 10003KT 070V130 9SM -SN OVC010 M11/M13 A3023 RMK SLP275
  • 240305Z AUTO 11008KT 9SM -SN OVC008 M11/M12 A3024 RMK SLP278
  • 240200Z AUTO 11004KT 9SM OVC008 M10/M11 A3024 RMK SLP277

TAF AMD TAF CYHD
Valid from the 24 at 04:00 until the 24 at 14:00 UTC


240415Z 2404/2414 08005KT P6SM BKN010 BKN220
TEMPO 2404/2406 SCT010 BKN220
FM240600 08005KT P6SM OVC010
TEMPO 2406/2414 OVC008 RMK FCST BASED ON AUTO OBS. NXT FCST BY 240800Z



MET'MAP, your aeronautical weather chart ! - Copyright ORBIFLY December 2007 - Disclaimer

ORBIFLY MET'MAP TEAM :

Programming & Development : Alexandra Zaïnal
Concept & original design : Baudouin d'Aumeries
Assistance for programming : Marc-Olivier Méhu
Technical & hardware support : Manuel Goepfert

Contact : metmap@orbifly.com




SOURCES & CREDITS :

   NOAA       Earth
Advisory